Time;durP1;ratioP1;P1;durP2;ratioP2;P2;SDS_P1;SDS_P2;PMS_P1;PMS_P2;Temp;Humidity;BMP_temperature;BMP_pressure;BME280_temperature;BME280_humidity;BME280_pressure;Samples;Min_cycle;Max_cycle;Signal;HPM_P1;HPM_P2
2021/08/07 00:00:47;;;;;;;6.32;1.80;;;;;;;15.88;92.40;99887.53;5071853;28;20058;-85
2021/08/07 00:03:19;;;;;;;1.50;1.38;;;;;;;15.84;92.43;99887.75;5077956;28;20044;-85
2021/08/07 00:05:47;;;;;;;1.73;1.63;;;;;;;15.80;93.00;99886.13;5059495;28;20040;-85
2021/08/07 00:08:19;;;;;;;1.00;1.00;;;;;;;15.85;93.09;99894.72;5062819;28;20296;-86
2021/08/07 00:10:54;;;;;;;1.10;1.10;;;;;;;15.96;92.89;99894.28;5075669;28;20080;-84
2021/08/07 00:13:26;;;;;;;3.90;2.35;;;;;;;16.10;92.23;99889.25;5060963;28;20226;-83
2021/08/07 00:15:54;;;;;;;3.85;1.20;;;;;;;16.20;91.68;99887.94;5069071;28;20133;-86
2021/08/07 00:18:32;;;;;;;;;;;;;;;16.26;91.07;99885.94;5074366;28;20048;-84
2021/08/07 00:21:02;;;;;;;1.00;1.00;;;;;;;16.24;90.81;99887.78;5087104;28;20026;-84
2021/08/07 00:23:47;;;;;;;1.97;1.33;;;;;;;16.19;91.00;99880.03;5075369;28;20053;-87
2021/08/07 00:26:20;;;;;;;3.22;1.60;;;;;;;16.14;90.97;99877.63;5054769;28;20128;-88
2021/08/07 00:29:05;;;;;;;2.28;1.10;;;;;;;16.13;91.03;99880.34;5070843;28;20044;-85
2021/08/07 00:31:32;;;;;;;1.33;0.93;;;;;;;16.08;91.18;99879.69;5052381;28;20129;-86
2021/08/07 00:34:02;;;;;;;2.05;1.13;;;;;;;16.01;91.46;99882.59;5037022;28;20040;-86
2021/08/07 00:36:29;;;;;;;1.20;1.20;;;;;;;15.92;91.52;99877.72;5061437;28;20035;-86
2021/08/07 00:39:01;;;;;;;1.27;1.15;;;;;;;15.82;91.95;99873.75;5062360;28;20045;-85
2021/08/07 00:41:33;;;;;;;4.72;2.17;;;;;;;15.75;92.37;99873.13;5042194;28;20050;-86
2021/08/07 00:44:09;;;;;;;2.70;1.30;;;;;;;15.67;92.72;99865.56;5053050;28;20608;-84
2021/08/07 00:46:45;;;;;;;2.50;2.08;;;;;;;15.64;92.73;99870.94;5057234;28;20048;-86
2021/08/07 00:49:19;;;;;;;2.50;2.30;;;;;;;15.61;92.95;99870.22;5050397;28;20487;-84
2021/08/07 00:51:53;;;;;;;1.58;1.48;;;;;;;15.56;93.15;99870.41;5069133;28;20526;-86
2021/08/07 00:54:26;;;;;;;1.85;1.75;;;;;;;15.54;93.31;99877.56;5063752;28;20495;-83
2021/08/07 00:57:06;;;;;;;;;;;;;;;15.55;93.54;99881.88;5074358;28;20112;-83
2021/08/07 00:59:33;;;;;;;1.23;1.10;;;;;;;15.55;92.91;99885.41;5027165;28;19936;-84
2021/08/07 01:02:20;;;;;;;1.27;1.02;;;;;;;15.62;92.87;99885.13;5042496;28;20048;-84
2021/08/07 01:05:02;;;;;;;2.28;1.65;;;;;;;15.71;92.46;99885.59;5039164;28;20032;-89
2021/08/07 01:08:26;;;;;;;1.55;1.13;;;;;;;15.76;91.83;99890.69;5049915;28;20048;-85
2021/08/07 01:11:54;;;;;;;2.70;1.10;;;;;;;15.80;91.28;99887.00;5026481;28;20060;-84
2021/08/07 01:14:31;;;;;;;5.88;2.83;;;;;;;15.80;91.18;99881.72;4960902;28;20045;-84
2021/08/07 01:17:06;;;;;;;2.85;2.15;;;;;;;15.80;91.24;99876.44;5036601;28;20048;-87
2021/08/07 01:19:52;;;;;;;1.92;1.73;;;;;;;15.86;90.82;99870.91;5039375;28;20066;-85
2021/08/07 01:22:28;;;;;;;1.70;1.60;;;;;;;15.93;90.54;99876.81;5055676;28;20052;-84
2021/08/07 01:25:05;;;;;;;1.48;1.35;;;;;;;15.99;90.20;99873.03;5052504;28;20056;-84
2021/08/07 01:27:38;;;;;;;2.95;1.92;;;;;;;16.04;89.84;99869.25;5041540;28;20437;-84
2021/08/07 01:30:11;;;;;;;1.15;1.05;;;;;;;16.10;89.76;99873.41;5052461;28;20074;-84
2021/08/07 01:32:47;;;;;;;2.17;0.93;;;;;;;16.10;89.79;99868.13;5035864;28;20685;-85
2021/08/07 01:35:32;;;;;;;1.30;1.30;;;;;;;16.07;89.80;99867.41;5021663;28;20049;-84
2021/08/07 01:38:03;;;;;;;4.55;4.15;;;;;;;16.03;89.92;99866.69;5015884;28;20052;-85
2021/08/07 01:40:34;;;;;;;4.47;3.92;;;;;;;15.97;90.25;99864.31;5041280;28;20074;-87
2021/08/07 01:43:10;;;;;;;3.75;1.95;;;;;;;15.88;90.58;99863.78;5014980;28;20049;-85
2021/08/07 01:45:46;;;;;;;3.50;1.60;;;;;;;15.81;90.67;99870.28;5040664;28;20093;-85
2021/08/07 01:48:38;;;;;;;1.25;1.00;;;;;;;15.75;90.97;99877.53;5052264;28;20056;-85
2021/08/07 01:51:59;;;;;;;;;;;;;;;;;;;;;
2021/08/07 01:54:34;;;;;;;3.30;1.17;;;;;;;15.62;91.29;99882.47;5060303;28;20045;-84
2021/08/07 01:57:25;;;;;;;1.95;0.95;;;;;;;15.58;91.52;99876.50;5061403;28;20108;-84
2021/08/07 01:59:56;;;;;;;3.80;1.67;;;;;;;15.58;91.48;99870.34;5088093;28;20086;-85
2021/08/07 02:02:25;;;;;;;1.80;1.08;;;;;;;15.53;91.50;99866.13;5051855;28;20072;-85
2021/08/07 02:04:58;;;;;;;1.00;1.00;;;;;;;15.49;91.94;99864.53;5070028;28;20110;-87
2021/08/07 02:07:42;;;;;;;0.97;0.97;;;;;;;15.48;91.92;99861.97;5084589;28;20040;-85
2021/08/07 02:10:17;;;;;;;0.77;0.77;;;;;;;15.43;91.94;99856.03;5055781;28;20374;-84
2021/08/07 02:12:49;;;;;;;1.17;1.08;;;;;;;15.37;92.39;99862.44;5062041;28;20064;-83
2021/08/07 02:15:25;;;;;;;1.40;1.30;;;;;;;15.32;92.60;99859.97;5057758;28;20016;-87
2021/08/07 02:18:00;;;;;;;3.17;1.30;;;;;;;15.31;92.50;99858.25;5065960;28;20340;-87
2021/08/07 02:20:31;;;;;;;0.80;0.80;;;;;;;15.30;92.65;99860.97;5052035;28;20055;-85
2021/08/07 02:23:08;;;;;;;3.30;0.95;;;;;;;15.27;92.83;99855.81;5070091;28;20045;-86
2021/08/07 02:25:39;;;;;;;4.22;0.90;;;;;;;15.23;92.87;99855.09;5070352;28;20024;-85
2021/08/07 02:28:22;;;;;;;1.25;1.17;;;;;;;15.20;93.02;99853.44;5055561;28;20044;-85
2021/08/07 02:30:58;;;;;;;3.05;1.02;;;;;;;15.17;93.00;99857.97;5012834;28;20059;-87
2021/08/07 02:36:16;;;;;;;2.42;1.10;;;;;;;15.08;93.52;99853.91;5053703;28;20040;-85
2021/08/07 02:39:00;;;;;;;2.43;1.50;;;;;;;15.04;93.62;99850.56;5064355;28;20075;-87
2021/08/07 02:41:34;;;;;;;1.85;0.88;;;;;;;15.02;93.76;99854.19;5070231;28;20064;-84
2021/08/07 02:44:14;;;;;;;0.85;0.82;;;;;;;15.00;93.71;99846.31;5068577;28;20040;-85
2021/08/07 02:46:45;;;;;;;0.65;0.50;;;;;;;14.98;93.69;99840.25;5071960;28;20079;-88
2021/08/07 02:49:14;;;;;;;1.80;1.20;;;;;;;14.97;93.66;99851.72;5052585;28;20070;-85
2021/08/07 02:51:48;;;;;;;2.15;1.10;;;;;;;14.97;93.85;99843.81;5068718;28;20079;-84
2021/08/07 02:54:20;;;;;;;1.42;1.23;;;;;;;14.95;93.87;99840.38;5046195;28;20040;-85
2021/08/07 02:56:56;;;;;;;1.40;1.30;;;;;;;14.92;94.16;99837.88;5056018;28;20040;-84
2021/08/07 02:59:29;;;;;;;2.40;1.45;;;;;;;14.88;93.75;99844.19;5045317;28;20044;-85
2021/08/07 03:02:00;;;;;;;2.30;1.27;;;;;;;14.88;94.42;99839.75;5088756;28;20129;-87
2021/08/07 03:04:33;;;;;;;1.08;1.08;;;;;;;14.86;94.05;99844.25;5047120;28;20040;-84
2021/08/07 03:07:05;;;;;;;1.55;1.45;;;;;;;14.88;94.32;99836.28;5018034;28;21716;-84
2021/08/07 03:09:42;;;;;;;3.67;1.40;;;;;;;14.90;93.61;99839.72;5069474;28;20060;-85
2021/08/07 03:12:20;;;;;;;0.82;0.80;;;;;;;14.95;93.43;99831.63;5055315;28;20044;-85
2021/08/07 03:17:52;;;;;;;1.15;0.85;;;;;;;15.07;92.75;99843.44;5071822;27;20419;-87
2021/08/07 03:20:30;;;;;;;2.72;0.90;;;;;;;15.14;92.30;99842.28;5029318;28;20100;-86
2021/08/07 03:22:58;;;;;;;3.00;1.00;;;;;;;15.17;92.21;99847.41;5004694;28;20053;-86
2021/08/07 03:25:25;;;;;;;2.38;1.20;;;;;;;15.20;92.09;99853.44;5007479;28;20704;-87
2021/08/07 03:28:01;;;;;;;1.90;0.77;;;;;;;15.21;92.03;99856.91;5017116;28;20517;-87
2021/08/07 03:30:30;;;;;;;1.02;1.00;;;;;;;15.21;91.84;99844.59;5019797;28;20687;-85
2021/08/07 03:32:56;;;;;;;1.25;0.93;;;;;;;15.20;91.81;99850.78;5042659;28;20058;-87
2021/08/07 03:35:25;;;;;;;2.83;0.82;;;;;;;15.19;91.76;99848.22;5002381;28;20057;-88
2021/08/07 03:37:53;;;;;;;1.38;0.90;;;;;;;15.18;91.63;99843.88;5010938;28;20164;-86
2021/08/07 03:40:20;;;;;;;0.93;0.93;;;;;;;15.18;91.63;99843.88;5020736;28;20680;-86
2021/08/07 03:42:50;;;;;;;1.27;1.00;;;;;;;15.17;91.53;99842.16;5024153;28;20045;-85
2021/08/07 03:45:23;;;;;;;2.20;0.95;;;;;;;15.17;91.41;99839.50;5018029;28;20053;-85
2021/08/07 03:47:57;;;;;;;1.00;0.88;;;;;;;15.15;91.37;99836.94;5021983;28;20045;-86
2021/08/07 03:50:26;;;;;;;2.70;1.05;;;;;;;15.12;91.44;99830.94;5018292;28;20053;-87
2021/08/07 03:52:53;;;;;;;2.38;0.93;;;;;;;15.09;91.32;99833.69;5024139;28;20137;-87
2021/08/07 03:55:20;;;;;;;0.80;0.80;;;;;;;15.04;91.73;99834.75;5015486;28;20064;-85
2021/08/07 03:57:59;;;;;;;1.05;0.85;;;;;;;15.01;92.10;99840.13;5020891;28;20059;-87
2021/08/07 04:00:32;;;;;;;1.10;1.10;;;;;;;15.00;92.47;99842.84;5017367;28;20674;-86
2021/08/07 04:02:59;;;;;;;1.65;1.00;;;;;;;14.99;92.05;99838.47;5022711;28;20174;-86
2021/08/07 04:05:27;;;;;;;1.58;1.20;;;;;;;15.00;92.18;99840.19;5016293;28;21001;-88
2021/08/07 04:08:08;;;;;;;2.63;1.10;;;;;;;15.03;92.20;99845.34;5053987;28;20068;-87
2021/08/07 04:10:36;;;;;;;1.30;1.20;;;;;;;15.05;91.90;99840.88;4994326;28;20117;-87
2021/08/07 04:13:07;;;;;;;2.55;1.05;;;;;;;15.09;91.59;99838.97;4999796;28;20105;-87
2021/08/07 04:15:35;;;;;;;1.43;1.00;;;;;;;15.13;91.49;99832.66;5000535;28;20045;-85
2021/08/07 04:18:05;;;;;;;0.90;0.90;;;;;;;15.19;91.15;99830.63;4984514;28;20093;-86
2021/08/07 04:20:32;;;;;;;1.05;0.95;;;;;;;15.25;90.65;99826.84;5017764;28;20954;-86
2021/08/07 04:22:59;;;;;;;1.20;1.10;;;;;;;15.32;90.55;99836.25;5006274;28;20050;-85
2021/08/07 04:25:26;;;;;;;0.80;0.80;;;;;;;15.38;90.00;99840.38;5030548;28;20077;-85
2021/08/07 04:27:55;;;;;;;2.33;0.93;;;;;;;15.44;89.89;99837.50;4997768;28;20042;-84
2021/08/07 04:30:22;;;;;;;0.85;0.60;;;;;;;15.50;89.47;99831.09;4985928;28;20104;-86
2021/08/07 04:32:50;;;;;;;1.38;0.85;;;;;;;15.53;89.30;99833.63;4993168;28;20033;-86
2021/08/07 04:35:16;;;;;;;0.80;0.73;;;;;;;15.57;88.69;99834.34;5001963;28;20062;-88
2021/08/07 04:37:59;;;;;;;0.98;0.75;;;;;;;15.61;88.69;99836.78;4973995;28;20136;-87
2021/08/07 04:40:30;;;;;;;2.72;1.15;;;;;;;15.63;88.76;99840.22;5024463;28;20053;-86
2021/08/07 04:42:57;;;;;;;0.50;0.47;;;;;;;15.65;88.48;99838.34;4968600;28;20575;-86
2021/08/07 04:45:24;;;;;;;2.13;0.80;;;;;;;15.66;88.47;99829.53;5009173;28;20054;-87
2021/08/07 04:47:59;;;;;;;0.77;0.75;;;;;;;15.63;88.35;99840.22;4969108;28;20052;-87
2021/08/07 04:50:32;;;;;;;1.65;1.00;;;;;;;15.57;88.60;99829.09;4990277;28;20524;-88
2021/08/07 04:53:00;;;;;;;5.23;1.43;;;;;;;15.51;88.48;99830.19;4985860;28;20508;-87
2021/08/07 04:55:32;;;;;;;0.47;0.47;;;;;;;15.45;88.86;99841.88;4989779;28;20582;-87
2021/08/07 04:58:14;;;;;;;3.75;1.52;;;;;;;15.40;89.09;99843.84;4987989;28;20046;-87
2021/08/07 05:00:41;;;;;;;1.52;1.00;;;;;;;15.34;89.49;99842.31;4971991;28;20156;-86
2021/08/07 05:03:09;;;;;;;0.65;0.65;;;;;;;15.33;89.62;99845.00;4989707;28;20336;-86
2021/08/07 05:05:37;;;;;;;1.42;0.70;;;;;;;15.33;89.32;99837.97;4982347;28;20212;-85
2021/08/07 05:08:04;;;;;;;1.45;0.75;;;;;;;15.32;89.54;99840.66;4988510;28;20064;-87
2021/08/07 05:10:32;;;;;;;3.25;0.80;;;;;;;15.32;89.61;99835.41;4972864;28;20408;-86
2021/08/07 05:13:01;;;;;;;2.17;0.80;;;;;;;15.33;89.54;99845.00;4986788;28;20050;-85
2021/08/07 05:15:30;;;;;;;0.88;0.60;;;;;;;15.33;89.53;99835.31;4985468;28;20065;-85
2021/08/07 05:17:57;;;;;;;1.08;0.88;;;;;;;15.36;89.63;99840.47;4980259;28;20054;-85
2021/08/07 05:20:24;;;;;;;0.93;0.80;;;;;;;15.41;89.53;99836.75;4972047;28;20141;-85
2021/08/07 05:22:53;;;;;;;1.33;0.80;;;;;;;15.44;89.23;99831.38;5001288;28;20211;-86
2021/08/07 05:25:24;;;;;;;1.33;1.20;;;;;;;15.45;89.21;99839.22;4989055;28;20499;-88
2021/08/07 05:27:51;;;;;;;2.60;1.10;;;;;;;15.49;89.14;99832.88;4974567;28;20097;-87
2021/08/07 05:30:22;;;;;;;3.50;1.05;;;;;;;15.53;89.04;99844.19;4984390;28;20089;-87
2021/08/07 05:32:49;;;;;;;1.02;0.65;;;;;;;15.61;88.88;99847.34;4974622;28;20057;-88
2021/08/07 05:35:18;;;;;;;1.65;0.88;;;;;;;15.71;88.63;99843.38;5000494;28;20144;-88
2021/08/07 05:37:52;;;;;;;0.90;0.90;;;;;;;15.79;88.02;99855.41;5003832;28;20072;-85
2021/08/07 05:40:20;;;;;;;0.75;0.68;;;;;;;15.83;87.70;99843.81;4986287;28;20895;-88
2021/08/07 05:42:56;;;;;;;1.58;0.88;;;;;;;15.83;87.42;99844.66;4988620;28;20132;-89
2021/08/07 05:48:09;;;;;;;0.85;0.57;;;;;;;15.84;87.34;99851.66;4971214;28;20132;-87
2021/08/07 05:50:40;;;;;;;0.60;0.60;;;;;;;15.86;87.28;99843.66;5004672;28;20081;-87
2021/08/07 05:53:19;;;;;;;1.40;1.08;;;;;;;15.93;87.42;99850.41;4969072;28;20452;-87
2021/08/07 05:55:46;;;;;;;2.70;0.80;;;;;;;15.99;87.12;99854.53;4972241;28;20049;-86
2021/08/07 05:58:14;;;;;;;1.25;0.70;;;;;;;16.02;86.87;99844.72;4985537;28;20048;-89
2021/08/07 06:00:43;;;;;;;3.03;0.75;;;;;;;16.08;86.64;99850.66;4998363;28;20392;-87
2021/08/07 06:03:10;;;;;;;0.95;0.60;;;;;;;16.10;86.50;99849.66;4957068;28;20377;-86
2021/08/07 06:05:37;;;;;;;1.77;0.60;;;;;;;16.11;86.36;99850.50;4964703;28;20057;-86
2021/08/07 06:08:06;;;;;;;0.43;0.43;;;;;;;16.14;86.05;99855.63;5022080;28;20045;-86
2021/08/07 06:10:35;;;;;;;0.63;0.57;;;;;;;16.16;86.04;99851.16;4985741;28;20046;-85
2021/08/07 06:13:01;;;;;;;1.35;0.80;;;;;;;16.19;85.87;99849.22;4999851;28;20056;-88
2021/08/07 06:15:28;;;;;;;1.17;0.50;;;;;;;16.27;85.64;99848.88;5006765;28;20492;-88
2021/08/07 06:17:58;;;;;;;1.20;0.77;;;;;;;16.33;85.09;99853.03;4973225;28;20076;-87
2021/08/07 06:20:25;;;;;;;2.58;0.90;;;;;;;16.40;84.98;99854.47;4991641;28;20057;-87
2021/08/07 06:22:56;;;;;;;2.92;0.65;;;;;;;16.44;84.34;99850.75;4999786;28;20695;-87
2021/08/07 06:25:24;;;;;;;1.00;0.60;;;;;;;16.46;83.97;99851.53;4988068;28;20933;-88
2021/08/07 06:28:00;;;;;;;4.82;0.70;;;;;;;16.54;83.76;99846.75;4984776;28;21572;-87
2021/08/07 06:30:33;;;;;;;0.43;0.43;;;;;;;16.73;83.54;99850.31;4982556;28;20103;-86
2021/08/07 06:33:09;;;;;;;2.08;0.80;;;;;;;16.95;82.83;99850.19;4994471;28;20132;-88
2021/08/07 06:38:22;;;;;;;1.05;1.00;;;;;;;17.26;80.71;99856.59;4992996;28;20049;-85
2021/08/07 06:40:51;;;;;;;0.77;0.60;;;;;;;17.34;79.90;99846.50;4988283;28;20985;-88
2021/08/07 06:43:18;;;;;;;1.10;0.40;;;;;;;17.36;79.53;99852.56;4974865;28;20056;-86
2021/08/07 06:45:47;;;;;;;0.70;0.70;;;;;;;17.38;79.35;99853.34;4970990;28;20042;-84
2021/08/07 06:48:14;;;;;;;0.52;0.47;;;;;;;17.40;80.03;99856.75;4975038;28;20052;-87
2021/08/07 06:50:46;;;;;;;5.65;1.00;;;;;;;17.45;79.52;99853.91;4971461;28;20172;-85
2021/08/07 06:53:22;;;;;;;1.45;1.35;;;;;;;17.48;79.40;99854.59;5004391;28;20081;-86
2021/08/07 06:55:51;;;;;;;1.13;0.70;;;;;;;17.51;79.53;99854.44;4988495;28;20493;-87
2021/08/07 06:58:18;;;;;;;0.80;0.80;;;;;;;17.54;79.43;99845.50;4981605;28;20073;-86
2021/08/07 07:00:45;;;;;;;1.42;0.90;;;;;;;17.59;79.34;99845.28;4985625;28;20044;-85
2021/08/07 07:03:13;;;;;;;1.05;0.60;;;;;;;17.64;79.19;99844.09;4981789;28;20244;-85
2021/08/07 07:05:41;;;;;;;2.00;0.80;;;;;;;17.78;78.74;99845.16;4971191;28;20108;-84
2021/08/07 07:08:09;;;;;;;0.57;0.57;;;;;;;17.96;78.26;99838.94;4971432;28;20459;-86
2021/08/07 07:10:38;;;;;;;1.05;0.65;;;;;;;18.07;76.96;99838.38;4969829;28;20061;-85
2021/08/07 07:13:08;;;;;;;1.17;0.90;;;;;;;17.99;76.81;99843.22;4990856;28;20054;-87
2021/08/07 07:15:36;;;;;;;2.08;0.47;;;;;;;17.88;77.11;99834.97;4966177;28;20080;-85
2021/08/07 07:18:04;;;;;;;1.90;0.90;;;;;;;17.79;76.85;99838.94;4988564;28;20046;-86
2021/08/07 07:20:36;;;;;;;0.63;0.63;;;;;;;17.78;77.54;99835.44;5001485;28;20147;-84
2021/08/07 07:23:06;;;;;;;1.90;1.25;;;;;;;17.84;77.51;99843.03;4993812;28;20049;-86
2021/08/07 07:25:33;;;;;;;0.45;0.40;;;;;;;17.95;76.52;99854.91;5021602;28;21105;-86
2021/08/07 07:28:03;;;;;;;2.17;0.70;;;;;;;18.00;75.77;99856.38;4981605;28;20053;-86
2021/08/07 07:30:31;;;;;;;0.77;0.77;;;;;;;18.07;76.46;99856.03;4973543;28;20110;-87
2021/08/07 07:33:03;;;;;;;0.65;0.32;;;;;;;18.16;76.74;99863.50;4985255;28;20048;-84
2021/08/07 07:38:23;;;;;;;0.93;0.52;;;;;;;18.27;75.79;99866.44;5010307;28;20062;-85
2021/08/07 07:40:50;;;;;;;1.02;0.88;;;;;;;18.28;75.74;99862.84;4976157;28;20493;-86
2021/08/07 07:43:20;;;;;;;0.93;0.85;;;;;;;18.29;75.64;99864.56;5005235;28;20069;-86
2021/08/07 07:45:49;;;;;;;0.63;0.60;;;;;;;18.31;75.51;99860.03;4983682;28;20054;-86
2021/08/07 07:48:22;;;;;;;2.10;0.68;;;;;;;18.34;74.99;99859.88;4991091;28;20064;-88
2021/08/07 07:50:56;;;;;;;0.95;0.70;;;;;;;18.39;75.24;99861.44;4990988;28;20054;-86
2021/08/07 07:56:08;;;;;;;1.17;0.40;;;;;;;18.58;74.33;99863.94;4990074;28;20046;-85
2021/08/07 07:58:37;;;;;;;0.32;0.30;;;;;;;18.71;73.66;99875.56;5002865;28;20092;-87
2021/08/07 08:03:48;;;;;;;1.95;0.45;;;;;;;19.66;71.19;99852.50;5002595;28;20074;-87
2021/08/07 08:06:15;;;;;;;0.57;0.57;;;;;;;20.73;67.19;99867.25;4993856;28;20046;-86
2021/08/07 08:08:42;;;;;;;0.30;0.30;;;;;;;21.73;62.61;99862.50;4988897;28;20049;-86
2021/08/07 08:11:09;;;;;;;0.50;0.50;;;;;;;22.51;59.55;99858.88;4998863;28;20104;-86
2021/08/07 08:13:40;;;;;;;0.40;0.32;;;;;;;23.01;58.55;99852.63;4981531;28;20088;-86
2021/08/07 08:16:09;;;;;;;1.00;0.60;;;;;;;23.22;56.83;99859.09;5005500;28;20207;-87
2021/08/07 08:18:46;;;;;;;0.73;0.60;;;;;;;23.72;56.67;99844.69;5005103;28;20050;-87
2021/08/07 08:21:14;;;;;;;0.88;0.55;;;;;;;24.43;54.24;99850.72;4987429;28;20449;-84
2021/08/07 08:23:41;;;;;;;0.50;0.50;;;;;;;24.92;52.59;99845.06;5035468;28;20554;-88
2021/08/07 08:26:09;;;;;;;1.30;0.63;;;;;;;25.45;50.88;99855.00;5000006;28;20530;-87
2021/08/07 08:28:37;;;;;;;2.03;0.70;;;;;;;25.89;49.70;99838.75;5004671;28;20124;-87
2021/08/07 08:31:06;;;;;;;1.02;0.30;;;;;;;26.37;47.97;99840.84;5001454;28;20053;-86
2021/08/07 08:33:44;;;;;;;0.30;0.30;;;;;;;26.96;46.57;99838.34;4989489;28;20050;-87
2021/08/07 08:36:21;;;;;;;0.30;0.30;;;;;;;27.29;44.81;99833.53;5009361;28;20083;-89
2021/08/07 08:38:52;;;;;;;0.80;0.25;;;;;;;27.85;44.08;99831.91;5001390;28;20647;-89
2021/08/07 08:41:23;;;;;;;1.75;0.17;;;;;;;28.03;41.22;99828.47;5022017;28;20049;-88
2021/08/07 08:43:52;;;;;;;0.30;0.30;;;;;;;27.91;42.11;99827.78;5017699;28;20060;-86
2021/08/07 08:46:30;;;;;;;0.38;0.30;;;;;;;28.20;41.71;99824.19;4991512;28;20064;-89
2021/08/07 08:49:00;;;;;;;0.38;0.30;;;;;;;28.90;39.40;99809.34;4986398;28;20050;-88
2021/08/07 08:51:33;;;;;;;0.30;0.17;;;;;;;28.92;37.73;99821.66;5006995;28;20058;-88
2021/08/07 08:54:09;;;;;;;0.30;0.10;;;;;;;29.37;38.20;99820.75;5006021;28;20128;-87
2021/08/07 08:56:47;;;;;;;1.25;0.40;;;;;;;29.62;37.31;99820.91;5005430;28;20042;-86
2021/08/07 08:59:22;;;;;;;0.20;0.20;;;;;;;29.86;35.49;99828.31;5005923;28;20045;-88
2021/08/07 09:01:54;;;;;;;0.15;0.15;;;;;;;29.98;36.22;99817.28;5021516;28;20076;-86
2021/08/07 09:04:29;;;;;;;0.85;0.30;;;;;;;30.35;35.59;99814.25;5003415;28;20046;-87
2021/08/07 09:06:56;;;;;;;0.30;0.30;;;;;;;30.26;35.50;99815.22;5036385;28;20056;-85
2021/08/07 09:09:43;;;;;;;1.02;0.63;;;;;;;30.60;34.75;99816.19;5023672;22;20412;-88
2021/08/07 09:12:12;;;;;;;2.35;0.40;;;;;;;31.50;34.09;99813.63;5007762;28;20088;-89
2021/08/07 09:14:51;;;;;;;0.25;0.20;;;;;;;32.49;31.89;99804.41;5029183;28;20045;-87
2021/08/07 09:17:23;;;;;;;0.20;0.20;;;;;;;33.07;30.10;99807.59;5008470;28;20095;-88
2021/08/07 09:19:56;;;;;;;0.82;0.22;;;;;;;33.07;31.14;99810.28;4996782;28;20740;-87
2021/08/07 09:22:30;;;;;;;0.40;0.40;;;;;;;32.95;30.76;99806.34;5019531;28;20549;-89
2021/08/07 09:25:26;;;;;;;0.35;0.28;;;;;;;32.21;30.98;99814.84;5017626;28;20111;-86
2021/08/07 09:27:54;;;;;;;0.20;0.20;;;;;;;32.04;31.36;99808.63;5042490;28;20057;-89
2021/08/07 09:30:24;;;;;;;0.80;0.30;;;;;;;31.04;33.47;99813.25;5011307;28;20041;-86
2021/08/07 09:33:00;;;;;;;1.30;0.57;;;;;;;30.06;34.87;99814.63;5019885;28;21131;-86
2021/08/07 09:35:40;;;;;;;2.30;0.63;;;;;;;29.23;36.77;99821.25;5018440;28;20040;-85
2021/08/07 09:38:30;;;;;;;0.50;0.50;;;;;;;28.27;38.08;99816.34;5014089;28;20103;-89
2021/08/07 09:41:06;;;;;;;0.52;0.20;;;;;;;27.85;39.46;99809.56;5018125;28;20069;-84
2021/08/07 09:43:36;;;;;;;0.47;0.40;;;;;;;27.47;40.17;99805.94;4997590;28;20076;-85
2021/08/07 09:46:12;;;;;;;0.32;0.22;;;;;;;27.23;40.79;99789.28;5016926;28;21644;-86
2021/08/07 09:48:48;;;;;;;0.75;0.43;;;;;;;26.94;41.08;99786.59;5014250;28;20053;-85
2021/08/07 09:51:47;;;;;;;0.68;0.40;;;;;;;26.42;42.40;99786.75;5017988;28;20049;-84
2021/08/07 09:54:20;;;;;;;1.08;0.40;;;;;;;26.07;42.88;99796.09;5010812;28;20161;-84
2021/08/07 09:56:54;;;;;;;0.50;0.50;;;;;;;25.71;42.83;99788.44;5018083;28;20142;-85
2021/08/07 09:59:27;;;;;;;0.52;0.43;;;;;;;25.16;43.57;99793.97;5011266;28;20045;-89
2021/08/07 10:01:55;;;;;;;0.35;0.30;;;;;;;24.60;44.71;99789.63;5016450;28;20052;-85
2021/08/07 10:04:23;;;;;;;0.40;0.20;;;;;;;24.35;45.81;99798.78;5011822;28;20061;-86
2021/08/07 10:07:07;;;;;;;0.77;0.30;;;;;;;24.19;46.44;99789.31;4997458;28;20060;-85
2021/08/07 10:09:38;;;;;;;0.35;0.30;;;;;;;24.05;47.99;99784.22;5013257;28;20057;-85
2021/08/07 10:12:19;;;;;;;2.35;0.50;;;;;;;23.98;48.55;99783.88;5008215;28;20052;-84
2021/08/07 10:14:48;;;;;;;0.32;0.30;;;;;;;24.55;47.58;99776.63;5012733;28;20060;-86
2021/08/07 10:17:23;;;;;;;0.30;0.30;;;;;;;25.82;45.00;99775.94;5005298;28;20053;-86
2021/08/07 10:19:59;;;;;;;0.50;0.30;;;;;;;26.54;43.42;99763.34;5008970;28;20100;-87
2021/08/07 10:22:27;;;;;;;0.82;0.40;;;;;;;27.39;41.70;99771.72;5028438;28;20045;-85
2021/08/07 10:24:55;;;;;;;1.38;0.45;;;;;;;28.84;39.15;99762.31;5002001;28;20056;-83
2021/08/07 10:27:34;;;;;;;1.02;0.60;;;;;;;29.79;37.37;99756.28;5014052;28;20446;-87
2021/08/07 10:30:06;;;;;;;1.73;1.63;;;;;;;30.67;35.75;99747.84;5010626;28;20064;-85
2021/08/07 10:32:40;;;;;;;0.30;0.30;;;;;;;31.72;34.28;99748.16;4998228;28;20504;-86
2021/08/07 10:38:35;;;;;;;1.77;0.60;;;;;;;33.40;31.87;99744.09;5025176;28;20132;-87
2021/08/07 10:41:07;;;;;;;1.90;0.28;;;;;;;34.17;29.69;99736.63;4998888;28;20049;-87
2021/08/07 10:43:37;;;;;;;0.35;0.20;;;;;;;34.48;29.60;99728.22;5017920;28;20050;-83
2021/08/07 10:54:29;;;;;;;0.65;0.50;;;;;;;29.28;36.66;99730.03;5009473;28;20045;-85
2021/08/07 10:59:53;;;;;;;1.23;0.40;;;;;;;31.32;33.32;99708.34;5007638;28;20068;-86
2021/08/07 11:02:32;;;;;;;1.80;0.30;;;;;;;31.84;32.19;99725.13;4985251;28;20053;-86
2021/08/07 11:05:02;;;;;;;1.42;0.45;;;;;;;31.98;30.82;99720.81;5004941;28;20079;-86
2021/08/07 11:07:32;;;;;;;1.30;0.60;;;;;;;31.77;30.83;99707.91;5008389;28;20045;-84
2021/08/07 11:10:26;;;;;;;1.42;0.22;;;;;;;30.82;31.00;99693.16;5006832;28;20050;-86
2021/08/07 11:16:24;;;;;;;1.35;0.35;;;;;;;31.05;31.12;99689.81;4982926;28;20118;-88
2021/08/07 11:18:55;;;;;;;1.50;0.30;;;;;;;30.76;31.54;99683.03;5005130;28;20049;-88
2021/08/07 11:21:56;;;;;;;1.85;0.38;;;;;;;29.98;31.88;99680.50;4997093;28;20710;-86
2021/08/07 11:24:45;;;;;;;1.38;0.22;;;;;;;29.41;33.29;99683.75;4991317;28;20140;-86
2021/08/07 11:27:12;;;;;;;0.50;0.28;;;;;;;28.25;34.82;99683.78;5011963;28;20048;-88
2021/08/07 11:30:15;;;;;;;0.93;0.30;;;;;;;27.72;36.50;99681.63;4989346;28;20049;-86
2021/08/07 11:32:44;;;;;;;0.70;0.40;;;;;;;28.22;35.27;99674.16;5008787;28;20165;-85
2021/08/07 11:35:14;;;;;;;2.38;0.40;;;;;;;28.62;34.14;99672.88;4999056;28;20042;-86
2021/08/07 11:38:08;;;;;;;1.00;0.35;;;;;;;29.66;32.56;99660.47;5005810;28;20068;-88
2021/08/07 11:40:44;;;;;;;3.65;0.43;;;;;;;30.64;30.89;99660.94;5024235;28;20045;-84
2021/08/07 11:43:21;;;;;;;2.67;0.40;;;;;;;31.71;29.95;99651.78;5013421;28;20049;-85
2021/08/07 11:45:59;;;;;;;0.98;0.40;;;;;;;31.99;29.59;99654.84;5007867;28;20062;-83
2021/08/07 11:48:56;;;;;;;0.40;0.20;;;;;;;32.29;28.81;99657.75;5015010;28;20053;-85
2021/08/07 11:51:26;;;;;;;1.50;0.73;;;;;;;31.98;28.25;99658.56;5013337;28;20053;-86
2021/08/07 11:53:54;;;;;;;0.85;0.50;;;;;;;32.29;28.27;99665.88;4990411;28;20050;-85
2021/08/07 11:56:25;;;;;;;0.70;0.52;;;;;;;32.64;27.77;99663.59;5012337;28;20041;-85
2021/08/07 11:58:59;;;;;;;0.88;0.20;;;;;;;32.44;27.48;99663.25;5001542;28;20117;-87
2021/08/07 12:01:40;;;;;;;1.00;0.30;;;;;;;31.53;28.79;99665.53;5005433;28;20049;-88
2021/08/07 12:04:07;;;;;;;2.28;0.35;;;;;;;30.17;30.75;99656.97;4989807;28;20137;-85
2021/08/07 12:06:41;;;;;;;0.90;0.63;;;;;;;29.80;31.49;99653.63;5016138;28;20049;-86
2021/08/07 12:09:17;;;;;;;1.05;0.38;;;;;;;29.46;32.12;99653.63;5026621;28;20124;-86
2021/08/07 12:11:47;;;;;;;1.67;0.57;;;;;;;29.24;33.10;99655.00;5027238;28;20703;-86
2021/08/07 12:14:26;;;;;;;3.97;0.60;;;;;;;28.52;34.16;99650.56;4994486;28;20049;-87
2021/08/07 12:16:53;;;;;;;1.00;0.30;;;;;;;28.04;34.83;99645.41;4992623;28;20184;-86
2021/08/07 12:19:23;;;;;;;2.72;0.65;;;;;;;27.69;34.78;99655.06;5013323;28;20156;-86
2021/08/07 12:21:53;;;;;;;0.35;0.35;;;;;;;27.31;35.66;99651.53;5000461;28;20073;-86
2021/08/07 12:24:24;;;;;;;1.17;0.30;;;;;;;26.86;36.18;99644.13;4980164;28;20047;-85
2021/08/07 12:26:55;;;;;;;2.08;0.28;;;;;;;26.56;36.93;99646.81;5011147;28;20056;-87
2021/08/07 12:29:33;;;;;;;4.97;0.70;;;;;;;26.16;37.83;99655.81;4981948;28;20061;-86
2021/08/07 12:32:04;;;;;;;0.80;0.50;;;;;;;25.99;38.15;99653.78;5007598;28;20044;-88
2021/08/07 12:34:37;;;;;;;2.40;0.30;;;;;;;25.71;38.70;99656.25;5007115;28;20099;-86
2021/08/07 12:37:17;;;;;;;3.08;0.40;;;;;;;25.39;39.99;99643.84;5011487;28;20058;-85
2021/08/07 12:39:51;;;;;;;0.98;0.40;;;;;;;25.31;40.24;99652.53;4989591;28;20136;-86